Главная страница
METAR-TAF:

METAR-TAF

Аэропорты :

Новосибирск, Россия

Толмачёво

широта: 55-01N, долгота: 082-38E, высота над уровнем моря: 111 м

Текущие метеонаблюдения

Эта сводка был подготовлена 26 минут назад, в 05:30 UTC
Ветер 4 Узел от западно-северо-западный
Температура -34°C
Влажность 74%
Давление 1050 hPa
Видимость 10 км и более
Нет облачности ниже 1500 м, и нет кучево-дождевой облачности

METAR: UNNT 240530Z 30002MPS CAVOK M34/M37 Q1050 R25/490145 R16/490145 NOSIG RMK QFE777/1037

Время: 12:56 (05:56 UTC)

Прогноз

Эта сводка был подготовлена 56 минут назад, в 05:00 UTC
Прогноз действительный с 24-го 06 UTC до 25-го 06 UTC
Ветер 6 Узел от северный
Видимость 10 км и более
Отдельные облака на высоте 2000 фута
временами
С 24-го 12 UTC до 25-го 06 UTC
Видимость: 3100 м
Рассеянная облачность на высоте 1100 фута
дым, дымка

TAF: UNNT 240500Z 2406/2506 35003MPS 9999 SCT020 TEMPO 2412/2506 3100 FU BR BKN011

Метеонаблюдения и прогнозы для более 4000 аэропортов (сводки METAR и TAF).

Имеющиеся станции представлены на карте желтыми и красными точками.

Чтобы увидеть название станции, наведите на нее мышь.

Затем щелкните, чтобы увидеть метеонаблюдения и метеопрогнозы.

Управление картой: чтобы увеличить масштаб, щелкните зеленые кнопки с черным крестиком; чтобы уменьшить масштаб, щелкните зеленую кнопку с тире; для просмотра соседних карт щелкайте зеленые стрелки.


METAR-TAF: